Time;durP1;ratioP1;P1;durP2;ratioP2;P2;SDS_P1;SDS_P2;PMS_P1;PMS_P2;Temp;Humidity;BMP_temperature;BMP_pressure;BME280_temperature;BME280_humidity;BME280_pressure;Samples;Min_cycle;Max_cycle;Signal;HPM_P1;HPM_P2
2022/10/06 00:00:46;;;;;;;7.80;1.65;;;;;;;12.02;98.53;102099.97;4957293;28;20075;-77
2022/10/06 00:03:13;;;;;;;5.78;1.52;;;;;;;11.98;98.48;102102.00;4955624;28;20048;-77
2022/10/06 00:05:39;;;;;;;6.13;1.30;;;;;;;11.96;98.44;102115.00;4956863;28;20139;-77
2022/10/06 00:08:06;;;;;;;6.28;1.38;;;;;;;11.94;98.42;102125.34;4957187;28;20135;-77
2022/10/06 00:10:36;;;;;;;5.35;1.60;;;;;;;11.94;98.70;102133.34;4956357;28;20047;-77
2022/10/06 00:13:02;;;;;;;8.85;1.45;;;;;;;11.92;98.49;102130.34;4957251;28;20130;-77
2022/10/06 00:15:31;;;;;;;11.60;1.85;;;;;;;11.89;98.51;102133.81;4956731;28;20051;-77
2022/10/06 00:17:58;;;;;;;12.32;1.88;;;;;;;11.89;98.04;102153.25;4955709;28;20078;-78
2022/10/06 00:20:26;;;;;;;8.85;1.70;;;;;;;11.86;97.99;102161.34;4956590;28;20051;-78
2022/10/06 00:22:52;;;;;;;6.15;1.63;;;;;;;11.84;98.19;102153.75;4957069;28;20044;-78
2022/10/06 00:25:23;;;;;;;9.73;1.63;;;;;;;11.85;98.08;102162.50;4956336;28;20099;-78
2022/10/06 00:27:51;;;;;;;10.43;1.52;;;;;;;11.85;98.38;102167.84;4957280;28;20118;-77
2022/10/06 00:30:21;;;;;;;11.68;1.58;;;;;;;11.85;97.85;102165.16;4955095;28;20052;-78
2022/10/06 00:32:59;;;;;;;16.95;2.25;;;;;;;11.85;97.90;102175.84;4954373;28;20052;-77
2022/10/06 00:35:30;;;;;;;7.22;2.00;;;;;;;11.81;97.97;102183.91;4953504;28;20051;-77
2022/10/06 00:37:57;;;;;;;9.00;1.60;;;;;;;11.78;97.84;102198.06;4954343;28;20099;-77
2022/10/06 00:40:24;;;;;;;10.68;1.80;;;;;;;11.74;97.36;102192.03;4955526;28;20048;-77
2022/10/06 00:42:56;;;;;;;8.38;1.58;;;;;;;11.69;97.28;102197.84;4954227;28;20044;-78
2022/10/06 00:45:38;;;;;;;8.30;1.38;;;;;;;11.65;96.90;102211.25;4954863;28;20052;-78
2022/10/06 00:48:25;;;;;;;;;;;;;;;11.64;96.88;102214.31;4957320;28;20079;-77
2022/10/06 00:50:56;;;;;;;9.07;1.67;;;;;;;11.60;96.29;102225.06;4956561;28;19933;-77
2022/10/06 00:53:26;;;;;;;7.90;1.67;;;;;;;11.56;96.66;102228.97;4954877;28;20544;-77
2022/10/06 00:55:53;;;;;;;16.48;1.60;;;;;;;11.54;97.34;102241.97;4954608;28;20135;-77
2022/10/06 00:58:20;;;;;;;6.90;1.73;;;;;;;11.49;96.86;102240.53;4956320;28;20082;-77
2022/10/06 01:00:52;;;;;;;9.40;1.83;;;;;;;11.46;96.48;102241.34;4956456;28;20042;-77
2022/10/06 01:03:32;;;;;;;11.15;1.60;;;;;;;11.44;96.54;102246.34;4956322;28;20095;-77
2022/10/06 01:06:01;;;;;;;14.45;1.70;;;;;;;11.37;96.46;102243.78;4956601;28;20504;-77
2022/10/06 01:08:28;;;;;;;6.45;1.85;;;;;;;11.35;96.82;102241.53;4954009;28;20103;-77
2022/10/06 01:10:55;;;;;;;13.88;1.80;;;;;;;11.31;96.68;102250.75;4956426;28;20048;-77
2022/10/06 01:13:23;;;;;;;7.30;1.70;;;;;;;11.30;96.95;102260.66;4956144;28;20052;-77
2022/10/06 01:15:56;;;;;;;12.43;1.83;;;;;;;11.30;97.17;102265.97;4954868;28;20107;-77
2022/10/06 01:18:26;;;;;;;6.88;1.45;;;;;;;11.27;96.68;102266.81;4954255;28;20092;-77
2022/10/06 01:21:01;;;;;;;11.35;1.95;;;;;;;11.21;96.19;102271.09;4954904;28;20063;-78
2022/10/06 01:23:30;;;;;;;8.57;1.60;;;;;;;11.17;96.38;102275.75;4953846;28;20051;-77
2022/10/06 01:26:00;;;;;;;10.20;1.73;;;;;;;11.15;96.38;102279.97;4954550;28;20048;-77
2022/10/06 01:28:26;;;;;;;4.68;1.42;;;;;;;11.12;96.74;102284.19;4955498;28;20047;-77
2022/10/06 01:30:56;;;;;;;4.07;1.60;;;;;;;11.11;96.52;102288.03;4954720;28;20103;-77
2022/10/06 01:33:23;;;;;;;8.02;2.05;;;;;;;11.06;96.87;102290.41;4954149;28;20505;-77
2022/10/06 01:35:52;;;;;;;12.15;1.80;;;;;;;11.04;96.74;102306.78;4954516;28;20051;-78
2022/10/06 01:38:19;;;;;;;9.75;1.98;;;;;;;11.01;96.59;102303.03;4954436;28;20059;-77
2022/10/06 01:40:51;;;;;;;13.32;1.92;;;;;;;10.99;96.75;102305.34;4954380;28;20056;-77
2022/10/06 01:43:17;;;;;;;7.32;1.92;;;;;;;10.96;96.19;102311.47;4953993;28;20048;-77
2022/10/06 01:45:44;;;;;;;4.82;1.60;;;;;;;10.94;95.78;102307.69;4954378;28;20493;-77
2022/10/06 01:48:10;;;;;;;10.30;1.50;;;;;;;10.88;95.59;102307.41;4955954;28;20519;-77
2022/10/06 01:50:39;;;;;;;7.57;1.42;;;;;;;10.84;96.03;102308.59;4953867;28;20088;-77
2022/10/06 01:53:06;;;;;;;13.70;2.17;;;;;;;10.77;95.88;102301.50;4952996;28;20485;-77
2022/10/06 01:55:32;;;;;;;8.75;1.55;;;;;;;10.75;96.06;102317.13;4953640;28;20082;-77
2022/10/06 01:57:59;;;;;;;9.85;1.60;;;;;;;10.73;96.00;102316.75;4954263;28;20056;-77
2022/10/06 02:00:26;;;;;;;6.15;1.60;;;;;;;10.69;96.06;102324.81;4953812;28;20055;-77
2022/10/06 02:02:52;;;;;;;8.23;1.17;;;;;;;10.66;95.91;102325.59;4953989;28;20099;-77
2022/10/06 02:05:19;;;;;;;6.43;1.45;;;;;;;10.62;95.50;102324.13;4955341;28;20110;-77
2022/10/06 02:07:48;;;;;;;4.97;1.23;;;;;;;10.60;95.68;102339.75;4953460;28;20524;-77
2022/10/06 02:10:15;;;;;;;11.43;1.83;;;;;;;10.58;95.78;102342.81;4953819;28;20044;-77
2022/10/06 02:12:43;;;;;;;4.40;1.60;;;;;;;10.57;95.79;102345.88;4954071;28;20059;-77
2022/10/06 02:15:10;;;;;;;9.15;1.80;;;;;;;10.54;95.76;102354.69;4955225;28;20036;-77
2022/10/06 02:17:37;;;;;;;5.53;1.17;;;;;;;10.48;95.58;102357.03;4954814;28;20083;-77
2022/10/06 02:20:05;;;;;;;12.32;1.58;;;;;;;10.48;95.29;102359.69;4953949;28;20098;-77
2022/10/06 02:22:35;;;;;;;24.30;1.90;;;;;;;10.46;94.81;102358.56;4954589;28;20568;-77
2022/10/06 02:25:02;;;;;;;11.93;1.67;;;;;;;10.42;95.11;102363.19;4955263;28;20473;-77
2022/10/06 02:27:29;;;;;;;4.70;1.75;;;;;;;10.38;94.82;102367.81;4953409;28;20158;-78
2022/10/06 02:29:55;;;;;;;5.53;1.70;;;;;;;10.34;95.48;102368.63;4953950;28;20079;-78
2022/10/06 02:32:22;;;;;;;6.13;1.33;;;;;;;10.30;95.18;102370.56;4953480;28;20052;-78
2022/10/06 02:34:48;;;;;;;5.18;1.48;;;;;;;10.26;95.11;102375.16;4953784;28;20138;-77
2022/10/06 02:37:16;;;;;;;4.57;1.25;;;;;;;10.23;95.29;102370.63;4953065;28;20520;-77
2022/10/06 02:39:42;;;;;;;4.93;1.35;;;;;;;10.18;95.32;102368.38;4953215;28;20060;-77
2022/10/06 02:42:10;;;;;;;5.07;1.20;;;;;;;10.12;94.56;102377.94;4955071;28;20130;-77
2022/10/06 02:44:38;;;;;;;4.78;1.48;;;;;;;10.10;95.31;102379.47;4953114;28;20138;-77
2022/10/06 02:47:13;;;;;;;5.93;1.20;;;;;;;10.07;94.96;102385.59;4953483;28;20055;-77
2022/10/06 02:49:39;;;;;;;4.72;1.20;;;;;;;10.04;94.96;102398.53;4952836;28;20107;-77
2022/10/06 02:52:06;;;;;;;5.28;1.40;;;;;;;10.01;94.95;102396.66;4953407;28;20058;-77
2022/10/06 02:54:34;;;;;;;7.90;1.33;;;;;;;9.98;94.74;102394.06;4954465;28;20051;-77
2022/10/06 02:57:00;;;;;;;7.80;1.60;;;;;;;9.96;94.97;102404.34;4954889;28;20071;-77
2022/10/06 02:59:27;;;;;;;6.32;1.42;;;;;;;9.93;95.01;102418.44;4952985;28;20056;-77
2022/10/06 03:01:54;;;;;;;6.13;1.15;;;;;;;9.92;95.27;102420.34;4953264;28;20131;-77
2022/10/06 03:04:20;;;;;;;4.00;1.42;;;;;;;9.92;95.21;102424.91;4953539;28;20122;-77
2022/10/06 03:06:48;;;;;;;7.18;1.33;;;;;;;9.90;94.91;102424.53;4953157;28;20083;-77
2022/10/06 03:09:18;;;;;;;6.03;1.92;;;;;;;9.86;94.84;102431.78;4952973;28;20131;-77
2022/10/06 03:11:44;;;;;;;3.38;1.20;;;;;;;9.81;95.34;102442.84;4953367;28;20052;-77
2022/10/06 03:14:15;;;;;;;2.53;1.10;;;;;;;9.80;95.21;102441.34;4952818;28;20052;-77
2022/10/06 03:16:50;;;;;;;7.15;1.48;;;;;;;9.75;95.81;102439.09;4952810;28;20111;-77
2022/10/06 03:19:21;;;;;;;2.90;1.08;;;;;;;9.73;96.13;102444.03;4952346;28;20151;-77
2022/10/06 03:21:48;;;;;;;12.35;1.42;;;;;;;9.68;95.15;102445.97;4954455;28;20051;-77
2022/10/06 03:24:15;;;;;;;7.25;1.48;;;;;;;9.67;95.73;102447.13;4952932;28;20047;-77
2022/10/06 03:26:48;;;;;;;7.82;1.90;;;;;;;9.66;95.97;102447.50;4953073;28;20620;-78
2022/10/06 03:29:17;;;;;;;13.50;1.80;;;;;;;9.62;95.80;102452.84;4953737;28;20163;-77
2022/10/06 03:31:49;;;;;;;7.40;1.40;;;;;;;9.61;95.86;102463.88;4952819;28;20349;-77
2022/10/06 03:34:15;;;;;;;7.30;1.55;;;;;;;9.56;95.14;102465.06;4953812;28;20039;-77
2022/10/06 03:36:43;;;;;;;7.55;1.25;;;;;;;9.54;95.05;102462.03;4952693;28;20052;-77
2022/10/06 03:39:10;;;;;;;6.40;1.40;;;;;;;9.54;95.96;102475.34;4952309;28;20055;-77
2022/10/06 03:41:37;;;;;;;7.68;1.35;;;;;;;9.49;95.72;102473.09;4952436;28;20390;-77
2022/10/06 03:44:05;;;;;;;8.98;1.63;;;;;;;9.48;95.78;102478.78;4952782;28;20044;-77
2022/10/06 03:46:34;;;;;;;5.30;2.03;;;;;;;9.46;95.49;102481.09;4952542;28;20131;-77
2022/10/06 03:49:04;;;;;;;10.35;1.50;;;;;;;9.44;95.93;102486.78;4952609;28;20111;-77
2022/10/06 03:51:39;;;;;;;7.25;1.63;;;;;;;9.38;95.92;102496.31;4952421;28;20390;-77
2022/10/06 03:54:11;;;;;;;4.03;1.30;;;;;;;9.34;95.77;102498.22;4952761;28;20075;-77
2022/10/06 03:56:41;;;;;;;4.30;1.30;;;;;;;9.32;96.00;102503.94;4954070;28;20062;-77
2022/10/06 03:59:12;;;;;;;3.38;1.30;;;;;;;9.30;96.08;102508.88;4952747;28;20052;-77
2022/10/06 04:01:44;;;;;;;6.95;1.55;;;;;;;9.27;96.45;102509.66;4952640;28;20457;-76
2022/10/06 04:04:13;;;;;;;;;;;;;;;9.28;96.10;102508.50;4952616;28;20047;-77
2022/10/06 04:06:43;;;;;;;6.40;1.40;;;;;;;9.25;96.44;102511.94;4954168;28;19931;-77
2022/10/06 04:09:13;;;;;;;6.38;1.48;;;;;;;9.24;96.44;102528.25;4954132;28;20044;-77
2022/10/06 04:11:43;;;;;;;8.98;1.38;;;;;;;9.21;95.86;102537.00;4953827;28;20043;-77
2022/10/06 04:14:12;;;;;;;5.80;1.30;;;;;;;9.18;95.81;102535.16;4952660;28;20047;-77
2022/10/06 04:16:42;;;;;;;7.65;1.77;;;;;;;9.16;96.62;102537.44;4953286;28;20107;-76
2022/10/06 04:19:10;;;;;;;2.72;1.20;;;;;;;9.12;96.57;102531.38;4955479;28;20087;-77
2022/10/06 04:21:45;;;;;;;5.97;1.30;;;;;;;9.10;96.48;102539.72;4955547;28;20047;-76
2022/10/06 04:24:18;;;;;;;4.90;1.55;;;;;;;9.09;96.35;102540.88;4955634;28;20047;-77
2022/10/06 04:26:47;;;;;;;14.43;2.50;;;;;;;9.08;96.58;102551.88;4955639;28;20424;-77
2022/10/06 04:29:15;;;;;;;2.42;1.05;;;;;;;9.08;96.95;102559.84;4955457;28;20051;-77
2022/10/06 04:31:44;;;;;;;8.27;1.77;;;;;;;9.06;97.25;102565.53;4955047;28;20043;-77
2022/10/06 04:34:25;;;;;;;4.28;1.30;;;;;;;9.04;97.19;102557.19;4955208;28;20055;-77
2022/10/06 04:36:52;;;;;;;9.52;1.70;;;;;;;9.00;97.22;102573.16;4955297;28;20059;-77
2022/10/06 04:39:19;;;;;;;7.05;1.60;;;;;;;9.00;97.66;102573.16;4954901;28;20062;-77
2022/10/06 04:41:46;;;;;;;5.00;1.48;;;;;;;8.98;97.01;102575.44;4955311;28;20056;-77
2022/10/06 04:44:27;;;;;;;6.75;1.50;;;;;;;8.96;97.14;102583.03;4954903;28;20052;-77
2022/10/06 04:46:56;;;;;;;3.25;1.55;;;;;;;8.94;97.44;102585.31;4954746;28;20595;-77
2022/10/06 04:49:23;;;;;;;11.93;1.70;;;;;;;8.92;97.21;102584.16;4954612;28;20052;-77
2022/10/06 04:51:52;;;;;;;5.72;1.35;;;;;;;8.90;97.45;102589.09;4954859;28;20078;-77
2022/10/06 04:54:19;;;;;;;4.93;1.17;;;;;;;8.89;97.96;102593.66;4954576;28;20078;-78
2022/10/06 04:56:49;;;;;;;3.88;1.50;;;;;;;8.88;97.69;102596.69;4954830;28;20056;-77
2022/10/06 04:59:19;;;;;;;7.43;1.48;;;;;;;8.85;97.32;102606.19;4954739;28;20475;-77
2022/10/06 05:01:46;;;;;;;10.25;1.35;;;;;;;8.83;97.77;102595.19;4954497;28;20048;-77
2022/10/06 05:04:13;;;;;;;7.55;1.40;;;;;;;8.81;97.62;102597.47;4956352;28;20051;-77
2022/10/06 05:06:41;;;;;;;6.53;1.40;;;;;;;8.79;97.57;102599.00;4954654;28;20135;-77
2022/10/06 05:09:11;;;;;;;7.60;1.50;;;;;;;8.77;97.21;102606.59;4956075;28;20043;-77
2022/10/06 05:11:43;;;;;;;4.75;1.20;;;;;;;8.73;96.69;102609.25;4954841;28;20599;-77
2022/10/06 05:14:12;;;;;;;3.40;1.20;;;;;;;8.67;97.12;102616.84;4954789;28;20047;-77
2022/10/06 05:16:42;;;;;;;4.15;1.30;;;;;;;8.65;97.15;102619.13;4954401;28;20131;-77
2022/10/06 05:19:10;;;;;;;5.10;1.30;;;;;;;8.65;97.04;102632.38;4954749;28;20051;-77
2022/10/06 05:21:37;;;;;;;4.13;1.50;;;;;;;8.62;96.87;102630.50;4954451;28;20056;-76
2022/10/06 05:24:05;;;;;;;7.53;1.65;;;;;;;8.57;96.51;102632.75;4954619;28;20051;-77
2022/10/06 05:26:34;;;;;;;3.40;1.30;;;;;;;8.53;97.02;102635.41;4954176;28;20055;-76
2022/10/06 05:29:03;;;;;;;7.00;1.67;;;;;;;8.52;97.28;102641.84;4953861;28;20189;-77
2022/10/06 05:31:31;;;;;;;5.10;1.33;;;;;;;8.51;97.49;102648.31;4953947;28;20055;-76
2022/10/06 05:34:01;;;;;;;6.28;1.38;;;;;;;8.49;97.48;102647.94;4954538;28;20047;-76
2022/10/06 05:36:30;;;;;;;4.65;1.33;;;;;;;8.48;97.48;102657.03;4953945;28;20062;-76
2022/10/06 05:38:58;;;;;;;5.97;1.20;;;;;;;8.45;97.01;102660.44;4954041;28;20059;-77
2022/10/06 05:41:30;;;;;;;5.55;1.88;;;;;;;8.41;97.53;102662.31;4953969;28;20048;-77
2022/10/06 05:43:59;;;;;;;6.07;1.60;;;;;;;8.40;97.50;102665.38;4954009;28;20540;-77
2022/10/06 05:46:32;;;;;;;12.10;1.52;;;;;;;8.40;97.66;102666.09;4953928;28;20052;-77
2022/10/06 05:49:06;;;;;;;3.35;1.20;;;;;;;8.38;97.79;102667.66;4954069;28;20054;-77
2022/10/06 05:51:34;;;;;;;6.70;1.50;;;;;;;8.38;97.88;102672.97;4953786;28;20154;-77
2022/10/06 05:54:05;;;;;;;9.73;2.03;;;;;;;8.37;98.03;102684.72;4954068;28;20048;-77
2022/10/06 05:56:34;;;;;;;10.07;2.10;;;;;;;8.35;97.92;102685.84;4953907;28;20609;-76
2022/10/06 05:59:02;;;;;;;14.18;1.55;;;;;;;8.33;97.90;102682.81;4953731;28;20517;-76
2022/10/06 06:01:38;;;;;;;7.80;1.80;;;;;;;8.35;97.93;102685.84;4953742;28;20467;-76
2022/10/06 06:04:12;;;;;;;7.53;1.58;;;;;;;8.34;97.69;102680.91;4954026;28;20047;-77
2022/10/06 06:06:44;;;;;;;3.28;1.13;;;;;;;8.36;98.17;102694.56;4954021;28;20103;-77
2022/10/06 06:09:19;;;;;;;6.88;1.70;;;;;;;8.37;97.99;102703.28;4954092;28;20039;-77
2022/10/06 06:11:52;;;;;;;4.88;1.67;;;;;;;8.39;98.68;102706.31;4954314;28;20054;-77
2022/10/06 06:15:59;;;;;;;6.05;1.67;;;;;;;8.40;98.63;102710.50;4954102;28;20043;-77
2022/10/06 06:17:14;;;;;;;4.95;1.40;;;;;;;8.41;99.02;102707.44;4953873;28;20052;-77
2022/10/06 06:19:40;;;;;;;7.28;1.95;;;;;;;8.44;99.54;102716.53;4955912;28;20750;-77
2022/10/06 06:22:07;;;;;;;9.90;1.67;;;;;;;8.47;99.40;102721.84;4954381;28;20086;-76
2022/10/06 06:24:37;;;;;;;8.20;1.63;;;;;;;8.50;99.28;102721.09;4954320;28;20457;-76
2022/10/06 06:27:03;;;;;;;8.75;1.98;;;;;;;8.52;99.45;102720.72;4954149;28;20056;-75
2022/10/06 06:29:30;;;;;;;5.03;1.42;;;;;;;8.56;99.48;102724.91;4953875;28;20052;-76
2022/10/06 06:31:56;;;;;;;4.03;1.17;;;;;;;8.67;100.00;102723.03;4954125;28;20543;-76
2022/10/06 06:34:24;;;;;;;9.35;1.63;;;;;;;8.78;100.00;102722.31;4955601;28;20493;-77
2022/10/06 06:36:53;;;;;;;6.20;1.40;;;;;;;8.82;100.00;102731.00;4955219;28;20520;-81
2022/10/06 06:39:20;;;;;;;9.20;1.73;;;;;;;8.85;99.84;102738.22;4953348;28;20139;-81
2022/10/06 06:41:49;;;;;;;10.80;2.20;;;;;;;8.88;100.00;102738.22;4953190;28;20136;-77
2022/10/06 06:44:47;;;;;;;5.00;1.77;;;;;;;8.96;100.00;102747.72;4953910;28;20048;-77
2022/10/06 06:47:29;;;;;;;11.20;1.65;;;;;;;9.07;100.00;102758.34;4954151;28;20051;-77
2022/10/06 06:49:58;;;;;;;13.27;1.73;;;;;;;9.20;100.00;102764.03;4953819;28;20051;-78
2022/10/06 06:52:26;;;;;;;9.73;2.00;;;;;;;9.33;100.00;102763.25;4955225;28;20046;-76
2022/10/06 06:54:53;;;;;;;14.85;2.15;;;;;;;9.43;100.00;102769.72;4955203;28;20180;-78
2022/10/06 06:57:20;;;;;;;7.68;1.75;;;;;;;9.53;100.00;102768.19;4953566;28;20111;-77
2022/10/06 06:59:48;;;;;;;8.93;1.90;;;;;;;9.62;100.00;102771.19;4953342;28;20067;-79
2022/10/06 07:02:16;;;;;;;5.90;1.60;;;;;;;9.73;99.62;102776.47;4953455;28;20043;-79
2022/10/06 07:04:44;;;;;;;8.05;2.08;;;;;;;9.82;99.43;102776.84;4953740;28;20056;-79
2022/10/06 07:07:14;;;;;;;7.50;2.17;;;;;;;9.89;99.48;102782.91;4954938;28;20099;-76
2022/10/06 07:09:41;;;;;;;9.50;1.92;;;;;;;10.01;99.46;102787.03;4953375;28;20052;-77
2022/10/06 07:12:10;;;;;;;9.57;1.75;;;;;;;10.10;99.58;102783.97;4953140;28;20564;-77
2022/10/06 07:25:05;;;;;;;7.93;1.90;;;;;;;10.19;99.48;102786.97;4953696;28;20508;-78
2022/10/06 07:25:44;;;;;;;12.73;2.38;;;;;;;10.62;98.02;102814.19;4953288;28;20052;-76
2022/10/06 07:28:12;;;;;;;14.30;2.15;;;;;;;10.74;97.84;102815.66;4953501;28;20052;-76
2022/10/06 07:30:40;;;;;;;10.10;1.73;;;;;;;10.82;97.21;102822.41;4953488;28;20056;-76
2022/10/06 07:33:10;;;;;;;13.40;2.00;;;;;;;10.94;97.29;102837.97;4953355;28;20107;-77
2022/10/06 07:35:37;;;;;;;11.95;2.10;;;;;;;11.02;96.40;102829.53;4953325;28;20048;-76
2022/10/06 07:38:06;;;;;;;9.55;1.70;;;;;;;11.14;95.55;102833.63;4953000;28;20109;-76
2022/10/06 07:40:38;;;;;;;8.65;2.17;;;;;;;11.23;95.91;102841.16;4952475;28;20062;-76
2022/10/06 07:43:16;;;;;;;8.00;2.10;;;;;;;11.31;94.95;102838.06;4953331;28;20052;-76
2022/10/06 07:45:45;;;;;;;6.53;1.73;;;;;;;11.38;93.72;102845.25;4953201;28;20390;-77
2022/10/06 07:48:23;;;;;;;11.43;2.28;;;;;;;11.50;93.65;102858.09;4953094;28;20060;-76
2022/10/06 07:50:52;;;;;;;10.15;2.35;;;;;;;11.63;94.11;102861.03;4953885;28;20047;-77
2022/10/06 07:53:26;;;;;;;8.13;1.93;;;;;;;11.73;92.72;102862.84;4956530;28;20055;-76
2022/10/06 07:56:04;;;;;;;13.18;2.78;;;;;;;11.84;93.11;102865.44;4955658;28;20745;-77
2022/10/06 07:58:36;;;;;;;9.05;2.65;;;;;;;11.95;92.34;102868.78;4956572;28;20103;-77
2022/10/06 08:01:08;;;;;;;10.32;2.20;;;;;;;12.07;92.12;102875.50;4957691;28;20056;-76
2022/10/06 08:03:39;;;;;;;8.52;1.90;;;;;;;12.20;91.48;102869.25;4958026;28;20560;-76
2022/10/06 08:06:11;;;;;;;13.10;2.20;;;;;;;12.27;90.39;102873.75;4957426;28;20050;-76
2022/10/06 08:08:37;;;;;;;8.73;2.20;;;;;;;12.34;90.20;102871.75;4957135;28;20435;-77
2022/10/06 08:11:06;;;;;;;14.48;1.90;;;;;;;12.45;89.55;102866.28;4957715;28;20048;-77
2022/10/06 08:13:35;;;;;;;15.07;2.40;;;;;;;12.55;89.35;102876.06;4957556;28;20456;-76
2022/10/06 08:16:07;;;;;;;10.48;1.70;;;;;;;12.67;88.75;102875.53;4957417;28;20107;-77
2022/10/06 08:18:34;;;;;;;6.95;1.85;;;;;;;12.78;88.95;102886.09;4957786;28;20087;-76
2022/10/06 08:21:14;;;;;;;9.50;1.80;;;;;;;12.89;88.46;102880.59;4957477;28;20055;-77
2022/10/06 08:23:42;;;;;;;12.77;1.77;;;;;;;12.98;87.45;102888.84;4957112;28;20130;-77
2022/10/06 08:26:10;;;;;;;10.40;2.50;;;;;;;13.06;85.99;102887.59;4957349;28;20083;-80
2022/10/06 08:28:38;;;;;;;10.98;1.63;;;;;;;13.17;85.85;102892.84;4957311;28;20126;-77
2022/10/06 08:31:06;;;;;;;9.25;1.77;;;;;;;13.32;86.13;102896.78;4957387;28;20122;-76
2022/10/06 08:33:34;;;;;;;9.70;1.85;;;;;;;13.46;84.89;102899.25;4957314;28;20122;-77
2022/10/06 08:36:03;;;;;;;11.60;1.92;;;;;;;13.50;84.02;102897.25;4956867;28;20044;-77
2022/10/06 08:38:30;;;;;;;11.00;1.95;;;;;;;13.59;83.64;102907.44;4956429;28;20139;-77
2022/10/06 08:40:57;;;;;;;6.88;1.88;;;;;;;13.69;84.27;102914.53;4957459;28;20665;-76
2022/10/06 08:43:25;;;;;;;10.50;1.83;;;;;;;13.77;82.54;102926.63;4957099;28;20111;-76
2022/10/06 08:45:59;;;;;;;8.63;2.05;;;;;;;13.82;82.98;102928.09;4957022;28;20054;-77
2022/10/06 08:48:28;;;;;;;13.00;1.98;;;;;;;13.87;82.48;102932.97;4957452;28;20044;-76
2022/10/06 08:51:27;;;;;;;10.68;2.33;;;;;;;13.99;82.42;102935.78;4957197;28;20044;-77
2022/10/06 08:54:07;;;;;;;8.65;2.03;;;;;;;14.10;80.88;102942.88;4952247;28;20060;-76
2022/10/06 08:56:57;;;;;;;11.10;1.88;;;;;;;14.18;80.67;102934.31;4956657;28;20044;-77
2022/10/06 08:59:24;;;;;;;9.13;2.63;;;;;;;14.28;80.63;102935.28;4957352;28;20513;-77
2022/10/06 09:01:53;;;;;;;11.55;2.00;;;;;;;14.36;79.98;102933.97;4955691;28;20067;-77
2022/10/06 09:04:28;;;;;;;15.32;2.22;;;;;;;14.48;79.92;102946.00;4956904;28;20497;-80
2022/10/06 09:07:05;;;;;;;7.57;2.00;;;;;;;14.65;80.53;102952.97;4956609;28;20118;-79
2022/10/06 09:09:42;;;;;;;13.73;2.55;;;;;;;14.72;78.47;102946.69;4957099;28;20055;-77
2022/10/06 09:12:36;;;;;;;7.68;1.85;;;;;;;14.75;79.19;102962.72;4957097;28;20047;-76
2022/10/06 09:15:21;;;;;;;14.55;2.35;;;;;;;14.77;77.78;102952.34;4956867;28;20508;-78
2022/10/06 09:18:09;;;;;;;8.07;2.10;;;;;;;14.78;77.15;102961.13;4956882;28;20047;-77
2022/10/06 09:20:42;;;;;;;7.88;1.98;;;;;;;14.84;77.18;102965.56;4956827;28;20048;-78
2022/10/06 09:23:15;;;;;;;9.70;1.60;;;;;;;14.95;75.65;102965.34;4956087;28;20504;-78
2022/10/06 09:25:43;;;;;;;14.02;1.88;;;;;;;14.94;76.38;102961.91;4956428;28;20048;-78
2022/10/06 09:28:14;;;;;;;6.25;1.75;;;;;;;14.94;75.53;102967.28;4956696;28;20048;-78
2022/10/06 09:30:42;;;;;;;8.23;1.77;;;;;;;14.98;74.09;102961.84;4956747;28;20461;-78
2022/10/06 09:33:24;;;;;;;9.05;1.75;;;;;;;15.02;73.51;102965.19;4956537;28;20107;-78
2022/10/06 09:36:08;;;;;;;;;;;;;;;15.13;76.43;102963.03;4956695;28;20058;-78
2022/10/06 09:38:54;;;;;;;7.18;1.80;;;;;;;15.27;74.69;102973.44;4956190;28;20010;-78
2022/10/06 09:41:23;;;;;;;6.40;1.50;;;;;;;15.29;72.58;102970.34;4956473;28;20139;-78
2022/10/06 09:43:56;;;;;;;10.30;2.08;;;;;;;15.31;71.36;102970.69;4956554;28;20450;-78
2022/10/06 09:46:27;;;;;;;4.45;1.45;;;;;;;15.38;72.10;102972.44;4956288;28;20483;-78
2022/10/06 09:49:19;;;;;;;8.68;1.65;;;;;;;15.45;71.84;102981.09;4956474;28;20050;-78
2022/10/06 09:52:14;;;;;;;4.68;1.48;;;;;;;15.42;71.68;102981.16;4954454;28;20143;-77
2022/10/06 09:54:42;;;;;;;7.20;1.50;;;;;;;15.34;70.01;102991.31;4956210;28;20620;-78
2022/10/06 09:57:20;;;;;;;4.15;1.70;;;;;;;15.18;70.96;102988.63;4956087;28;20168;-78
2022/10/06 09:59:47;;;;;;;7.95;1.25;;;;;;;15.07;71.34;102990.78;4955628;28;20057;-78
2022/10/06 10:02:27;;;;;;;7.82;1.77;;;;;;;15.16;71.21;102994.41;4955437;28;20192;-78
2022/10/06 10:04:55;;;;;;;9.80;1.73;;;;;;;15.21;70.58;102991.19;4953056;28;20047;-79
2022/10/06 10:07:25;;;;;;;6.53;1.35;;;;;;;15.13;71.57;102981.06;4954985;28;20055;-79
2022/10/06 10:09:52;;;;;;;7.10;1.30;;;;;;;15.31;71.17;102989.47;4955052;28;20122;-78
2022/10/06 10:12:27;;;;;;;7.32;1.50;;;;;;;15.29;70.30;102991.81;4953950;28;20058;-78
2022/10/06 10:15:10;;;;;;;7.07;1.60;;;;;;;15.27;70.97;102986.84;4954445;28;20491;-78
2022/10/06 10:17:46;;;;;;;8.55;1.50;;;;;;;15.33;69.32;102985.19;4954282;28;20455;-77
2022/10/06 10:20:27;;;;;;;9.07;1.40;;;;;;;15.19;69.99;102987.44;4955321;28;20126;-74
2022/10/06 10:22:57;;;;;;;5.38;1.30;;;;;;;15.14;70.50;102996.00;4955748;28;20166;-80
2022/10/06 10:25:43;;;;;;;5.25;1.55;;;;;;;15.23;69.71;102993.47;4955487;28;20122;-80
2022/10/06 10:28:09;;;;;;;4.82;1.13;;;;;;;15.26;68.46;102987.28;4954802;28;20573;-79
2022/10/06 10:30:57;;;;;;;5.60;1.52;;;;;;;15.19;68.73;102984.78;4955928;28;20523;-77
2022/10/06 10:33:34;;;;;;;4.57;1.45;;;;;;;15.11;67.85;102992.22;4955785;28;20119;-81
2022/10/06 10:36:03;;;;;;;4.63;1.25;;;;;;;15.09;68.09;102999.91;4955434;28;20048;-79
2022/10/06 10:38:30;;;;;;;3.30;1.20;;;;;;;15.14;66.92;102994.06;4955123;28;20060;-77
2022/10/06 10:41:14;;;;;;;16.90;2.42;;;;;;;15.27;68.13;102994.91;4955452;28;20060;-81
2022/10/06 10:43:52;;;;;;;8.30;1.70;;;;;;;15.52;67.70;102991.66;4955577;28;20078;-77
2022/10/06 10:46:47;;;;;;;9.13;1.77;;;;;;;15.70;68.10;102993.94;4953899;28;20080;-78
2022/10/06 10:49:27;;;;;;;6.35;1.63;;;;;;;15.84;68.03;102998.97;4955260;28;20047;-79
2022/10/06 10:52:02;;;;;;;4.82;1.40;;;;;;;15.85;65.96;103008.53;4955385;28;20494;-78
2022/10/06 10:54:57;;;;;;;6.78;1.45;;;;;;;15.83;67.19;103002.09;4955486;28;20070;-78
2022/10/06 10:57:39;;;;;;;3.55;1.05;;;;;;;15.83;67.23;103004.78;4955252;28;20054;-78
2022/10/06 11:00:16;;;;;;;2.90;1.05;;;;;;;15.97;67.27;103010.56;4955497;28;20492;-78
2022/10/06 11:02:43;;;;;;;4.13;1.40;;;;;;;15.95;63.46;103020.22;4955085;28;20075;-78
2022/10/06 11:05:27;;;;;;;5.72;1.20;;;;;;;15.83;61.95;103012.81;4955169;28;20052;-80
2022/10/06 11:08:13;;;;;;;8.60;1.65;;;;;;;15.77;62.28;103017.19;4955201;28;20048;-79
2022/10/06 11:10:48;;;;;;;2.50;0.90;;;;;;;15.58;63.04;103021.47;4955221;28;20078;-80
2022/10/06 11:13:35;;;;;;;5.00;1.10;;;;;;;15.38;64.25;103028.81;4955163;28;20099;-80
2022/10/06 11:16:21;;;;;;;4.78;1.08;;;;;;;15.23;65.03;103025.66;4954866;28;20163;-81
2022/10/06 11:18:57;;;;;;;2.92;1.10;;;;;;;15.30;65.96;103020.91;4954730;28;20537;-81
2022/10/06 11:21:41;;;;;;;3.50;1.40;;;;;;;15.50;66.55;103028.16;4954921;28;20056;-80
2022/10/06 11:24:28;;;;;;;5.07;1.65;;;;;;;15.56;66.29;103029.16;4955030;28;20576;-80
2022/10/06 11:27:24;;;;;;;5.38;1.30;;;;;;;15.66;64.94;103022.81;4957089;28;20075;-80
2022/10/06 11:30:06;;;;;;;4.22;1.23;;;;;;;15.73;65.70;103025.31;4950456;28;20070;-80
2022/10/06 11:32:42;;;;;;;;;;;;;;;15.82;66.91;103016.69;4971114;28;20056;-80
2022/10/06 11:35:20;;;;;;;4.07;1.08;;;;;;;15.82;65.57;103016.69;4956146;28;20449;-81
2022/10/06 11:38:03;;;;;;;7.43;1.00;;;;;;;15.88;63.44;103018.44;4955628;28;20061;-81
2022/10/06 11:40:50;;;;;;;6.63;1.17;;;;;;;15.87;62.44;103018.88;4956189;28;20058;-83
2022/10/06 11:43:28;;;;;;;4.35;1.17;;;;;;;15.91;63.30;103024.91;4956490;28;20143;-81
2022/10/06 11:46:19;;;;;;;7.53;1.20;;;;;;;15.93;61.49;103019.88;4957864;28;20050;-83
2022/10/06 11:48:46;;;;;;;7.47;1.83;;;;;;;15.99;60.46;103013.53;4955627;28;20387;-83
2022/10/06 11:51:16;;;;;;;1.98;1.00;;;;;;;15.95;60.62;103014.84;4957695;28;20290;-82
2022/10/06 11:53:45;;;;;;;2.45;1.00;;;;;;;15.96;61.41;103016.34;4938641;28;20083;-80
2022/10/06 11:56:18;;;;;;;4.20;0.98;;;;;;;15.96;59.74;103008.28;4938700;28;20051;-81